Queanbeyan, Australia
Current Conditions -  °F | °C
As of 5:30 PM on Thursday 23 Oct 2014 (Local Time) from YSCB Reporting Station
Thunderstorm Thunderstorm  
Wind Chill: 64°   Ceiling: 10000
Heat Index: 64°   Visibility: 6mi
Dew Point: 54°   Wind: 10mph
Humidity: 68%   Direction: 120°ESE
Pressure: 30.06"   Gusts: NA
Location:  35.35°S, 149.23°E
Report Text: YSCB 230630Z 12009KT 9000 -SHRA VCTS FEW025 SCT035 BKN100 FEW035CB 18/12 Q1018
Loading
Personal Weather Stations






























Interactive Weather Map
Tropical Storm Tracking
New forecast layout! Learn more

10-Day Weather Forecast

Advertisements
Track Severe Weather on mobile